Dortmund Airport

EDLW · North Rhine-Westphalia, 德国

罗盘
风向 的 风向 240° Dortmund Airport 6/24
风: 17 kt, 5 beaufort

17 kt

改变
0 ft 1.000 2.000 3.000 4.000 5.000
Cloud Cloud Cloud Cloud Cloud Cloud Cloud Cloud
OVC 2.200
METAR EDLW 011150Z 24017KT 9999 OVC022 06/02 Q1017

METAR Dortmund Airport - EDLW/DTM

Dortmund Airport是,德国中的中型机场。 该机场有一条跑道: 6/24. 该领域的国际民航组织标志是EDLW 它的国际航空运输协会代码是DTM.

这份报告是针对2023年2月1日 12:50, 当地时间在Dortmund Airport进行的。

机场观察

风向为240°,速度为17 kt。

可见度为10 km 或者更多。

有乌云密布在2.200 ft的高度。 破损或更高的上限为2.200 ft。

温度为6 °C,阵风为-1 °C。 露点为2 °C,相对湿度为76%。 海平面上的气压为1017 hPa (QNH)。

白天

今天,太阳从08:07升起,在17:18降落。 这适用于Dortmund Airport,世界夏令时可能有所不同。 当地时间与世界标准时间之间的时差为+1 小时。 当前,没有夏令时有效。

公司介绍

我们没有关于这个机场的公司信息。

体会

到Vliegles.nl去找飞行课程,跳伞和其他飞行体验。 浏览页面,了解Dortmund Airport附近所有可用的活动。 你也可以使用搜索功能来寻找你所在地附近的特定飞行课程、跳伞或其他飞行体验。

跑道

Id 标题 侧风 逆风 侧风 %
6/24 061°-241° 17 kt 2 %

逆风成分最大的方向会被突出显示,并用于横风计算。 这并不一定意味着这个方向在使用。

乌云

2.200 ft OVC 乌云密布

温度 & 天气

温度 6 °C
露点 2 °C
相对湿度 76%
风寒 -1 °C
Kp-index 0 (0-9)

白天

日出
08:07
中午
12:43
日落
17:18 (3:48)

小工具

你想在你的网站上有一个关于Dortmund Airport的当前航空天气(METAR)的小部件吗?

显示HTML代码

我们和第三方通过cookies跟踪您在我们网站上的互联网行为。如果你继续,我们认为你同意我们的饼干政策